createdAt,value
2018-05-16T00:02:09.497Z,13.90
2018-05-16T00:04:37.966Z,13.37
2018-05-16T00:07:05.639Z,13.87
2018-05-16T00:09:34.110Z,15.70
2018-05-16T00:12:02.739Z,19.20
2018-05-16T00:14:31.231Z,16.57
2018-05-16T00:16:58.891Z,17.70
2018-05-16T00:19:26.597Z,16.77
2018-05-16T00:21:54.267Z,18.47
2018-05-16T00:24:22.718Z,16.70
2018-05-16T00:26:50.382Z,16.27
2018-05-16T00:29:18.063Z,17.70
2018-05-16T00:31:45.736Z,17.80
2018-05-16T00:34:14.200Z,17.87
2018-05-16T00:36:41.865Z,17.80
2018-05-16T00:39:09.629Z,17.33
2018-05-16T00:41:37.296Z,15.40
2018-05-16T00:44:05.764Z,16.57
2018-05-16T00:46:33.450Z,14.20
2018-05-16T00:49:02.860Z,14.20
2018-05-16T00:51:32.153Z,14.77
2018-05-16T00:54:01.899Z,17.30
2018-05-16T00:56:30.292Z,17.53
2018-05-16T00:58:57.949Z,17.33
2018-05-16T01:01:25.638Z,18.30
2018-05-16T01:03:53.306Z,15.60
2018-05-16T01:06:21.006Z,17.50
2018-05-16T01:08:48.668Z,19.93
2018-05-16T01:11:16.387Z,23.60
2018-05-16T01:13:44.065Z,20.47
2018-05-16T01:16:12.531Z,22.80
2018-05-16T01:18:40.206Z,24.13
2018-05-16T01:21:08.667Z,25.67
2018-05-16T01:23:36.335Z,25.70
2018-05-16T01:26:04.287Z,27.40
2018-05-16T01:28:32.681Z,27.57
2018-05-16T01:31:00.375Z,27.27
2018-05-16T01:33:28.043Z,26.87
2018-05-16T01:35:55.746Z,27.87
2018-05-16T01:38:24.182Z,27.97
2018-05-16T01:40:51.883Z,27.30
2018-05-16T01:43:19.542Z,29.13
2018-05-16T01:45:47.241Z,28.80
2018-05-16T01:48:15.675Z,29.17
2018-05-16T01:50:43.369Z,29.50
2018-05-16T01:53:11.040Z,29.10
2018-05-16T01:55:38.781Z,28.50
2018-05-16T01:58:06.463Z,27.00
2018-05-16T02:00:34.165Z,32.60
2018-05-16T02:03:03.243Z,30.10
2018-05-16T02:05:30.968Z,29.57
2018-05-16T02:07:58.676Z,31.00
2018-05-16T02:10:26.397Z,30.40
2018-05-16T02:12:54.064Z,32.37
2018-05-16T02:15:21.726Z,28.10
2018-05-16T02:17:49.436Z,30.07
2018-05-16T02:20:17.108Z,29.27
2018-05-16T02:22:44.797Z,28.27
2018-05-16T02:25:12.478Z,29.77
2018-05-16T02:27:40.173Z,29.70
2018-05-16T02:30:07.853Z,31.37
2018-05-16T02:32:35.536Z,30.47
2018-05-16T02:35:03.208Z,29.63
2018-05-16T02:37:31.042Z,30.83
2018-05-16T02:39:58.612Z,29.37
2018-05-16T02:42:26.311Z,30.97
2018-05-16T02:44:53.980Z,32.23
2018-05-16T02:47:22.444Z,30.83
2018-05-16T02:49:50.100Z,31.60
2018-05-16T02:52:17.802Z,30.90
2018-05-16T02:54:45.512Z,31.70
2018-05-16T02:57:13.964Z,34.37
2018-05-16T02:59:41.645Z,28.23
2018-05-16T03:02:09.340Z,29.70
2018-05-16T03:04:37.791Z,32.93
2018-05-16T03:07:05.483Z,35.10
2018-05-16T03:09:33.144Z,32.70
2018-05-16T03:12:01.933Z,32.20
2018-05-16T03:14:30.486Z,32.40
2018-05-16T03:16:58.182Z,31.27
2018-05-16T03:19:26.614Z,33.40
2018-05-16T03:21:54.319Z,30.10
2018-05-16T03:24:21.995Z,30.33
2018-05-16T03:26:50.459Z,29.63
2018-05-16T03:29:18.158Z,32.87
2018-05-16T03:31:45.817Z,33.50
2018-05-16T03:34:13.548Z,32.00
2018-05-16T03:36:41.214Z,33.17
2018-05-16T03:39:08.907Z,32.97
2018-05-16T03:41:36.585Z,32.00
2018-05-16T03:44:04.265Z,30.50
2018-05-16T03:46:31.927Z,33.60
2018-05-16T03:49:00.417Z,30.27
2018-05-16T03:51:28.077Z,33.50
2018-05-16T03:53:55.775Z,34.60
2018-05-16T03:56:24.195Z,32.57
2018-05-16T03:59:03.709Z,30.10
2018-05-16T04:01:43.312Z,32.07
2018-05-16T04:04:16.896Z,30.33
2018-05-16T04:06:45.367Z,32.43
2018-05-16T04:09:13.081Z,30.70
2018-05-16T04:11:41.518Z,31.87
2018-05-16T04:14:09.223Z,30.63
2018-05-16T04:16:37.662Z,33.17
2018-05-16T04:19:07.073Z,31.10
2018-05-16T04:21:34.739Z,30.60
2018-05-16T04:24:02.423Z,31.90
2018-05-16T04:26:30.866Z,30.27
2018-05-16T04:28:58.552Z,31.43
2018-05-16T04:31:26.222Z,31.33
2018-05-16T04:33:54.664Z,34.03
2018-05-16T04:36:22.365Z,31.17
2018-05-16T04:38:50.811Z,29.20
2018-05-16T04:41:18.516Z,30.70
2018-05-16T04:43:46.954Z,33.00
2018-05-16T04:46:14.632Z,31.17
2018-05-16T04:48:42.307Z,32.40
2018-05-16T04:51:10.768Z,30.90
2018-05-16T04:53:38.430Z,29.47
2018-05-16T04:56:06.124Z,31.30
2018-05-16T04:58:33.815Z,31.20
2018-05-16T05:01:02.988Z,36.20
2018-05-16T05:03:31.503Z,33.73
2018-05-16T05:05:59.207Z,40.93
2018-05-16T05:08:27.641Z,35.27
2018-05-16T05:10:55.351Z,31.67
2018-05-16T05:13:23.793Z,31.97
2018-05-16T05:15:51.503Z,34.37
2018-05-16T05:18:20.011Z,32.77
2018-05-16T05:20:47.668Z,31.13
2018-05-16T05:23:15.343Z,29.63
2018-05-16T05:25:43.045Z,29.83
2018-05-16T05:28:10.711Z,31.67
2018-05-16T05:30:38.416Z,29.57
2018-05-16T05:33:06.085Z,32.73
2018-05-16T05:35:33.773Z,30.57
2018-05-16T05:38:02.298Z,31.10
2018-05-16T05:40:31.775Z,30.50
2018-05-16T05:42:59.445Z,28.87
2018-05-16T05:45:29.257Z,27.03
2018-05-16T05:47:56.933Z,36.60
2018-05-16T05:50:25.389Z,34.00
2018-05-16T05:52:53.056Z,29.13
2018-05-16T05:55:20.757Z,32.53
2018-05-16T05:57:48.440Z,32.27
2018-05-16T06:00:16.115Z,29.43
2018-05-16T06:02:43.816Z,30.93
2018-05-16T06:05:12.262Z,27.97
2018-05-16T06:07:39.971Z,25.90
2018-05-16T06:10:07.668Z,36.80
2018-05-16T06:12:35.350Z,32.00
2018-05-16T06:15:03.033Z,30.33
2018-05-16T06:17:31.716Z,28.80
2018-05-16T06:19:59.389Z,27.17
2018-05-16T06:22:27.844Z,31.03
2018-05-16T06:24:55.526Z,28.77
2018-05-16T06:27:23.283Z,28.47
2018-05-16T06:29:50.912Z,26.13
2018-05-16T06:32:18.617Z,29.20
2018-05-16T06:34:47.055Z,29.67
2018-05-16T06:37:14.743Z,29.70
2018-05-16T06:39:42.407Z,30.50
2018-05-16T06:42:10.091Z,29.70
2018-05-16T06:44:38.527Z,27.73
2018-05-16T06:47:06.226Z,29.63
2018-05-16T06:49:34.655Z,31.23
2018-05-16T06:52:02.454Z,31.27
2018-05-16T06:54:31.144Z,27.97
2018-05-16T06:56:58.836Z,29.60
2018-05-16T06:59:26.506Z,28.40
2018-05-16T07:01:54.202Z,27.43
2018-05-16T07:04:21.902Z,28.93
2018-05-16T07:06:50.375Z,30.63
2018-05-16T07:09:18.048Z,28.20
2018-05-16T07:11:46.522Z,29.17
2018-05-16T07:14:14.952Z,29.80
2018-05-16T07:16:42.622Z,30.17
2018-05-16T07:19:10.308Z,29.93
2018-05-16T07:21:37.981Z,30.77
2018-05-16T07:24:05.677Z,30.60
2018-05-16T07:26:33.334Z,30.13
2018-05-16T07:29:01.858Z,30.90
2018-05-16T07:31:30.247Z,30.67
2018-05-16T07:33:57.952Z,28.20
2018-05-16T07:36:25.621Z,29.33
2018-05-16T07:38:53.322Z,28.83
2018-05-16T07:41:20.990Z,29.27
2018-05-16T07:43:48.687Z,28.13
2018-05-16T07:46:17.130Z,29.17
2018-05-16T07:48:44.828Z,29.70
2018-05-16T07:51:13.344Z,29.80
2018-05-16T07:53:41.767Z,29.43
2018-05-16T07:56:09.493Z,29.57
2018-05-16T07:58:38.015Z,29.77
2018-05-16T08:01:05.685Z,27.77
2018-05-16T08:03:34.154Z,29.17
2018-05-16T08:06:03.443Z,28.67
2018-05-16T08:08:32.111Z,27.57
2018-05-16T08:11:00.203Z,27.90
2018-05-16T08:13:27.900Z,29.83
2018-05-16T08:15:55.571Z,27.67
2018-05-16T08:18:23.263Z,24.77
2018-05-16T08:20:50.930Z,29.00
2018-05-16T08:23:18.628Z,26.17
2018-05-16T08:25:46.300Z,26.77
2018-05-16T08:28:14.758Z,25.90
2018-05-16T08:30:42.416Z,25.77
2018-05-16T08:33:10.195Z,25.00
2018-05-16T08:35:37.888Z,24.00
2018-05-16T08:38:05.568Z,26.00
2018-05-16T08:40:33.270Z,24.97
2018-05-16T08:43:00.986Z,25.23
2018-05-16T08:45:28.707Z,23.57
2018-05-16T08:47:57.127Z,24.97
2018-05-16T08:50:24.815Z,22.97
2018-05-16T08:52:52.479Z,22.70
2018-05-16T08:55:20.192Z,23.83
2018-05-16T08:57:47.855Z,23.53
2018-05-16T09:00:15.547Z,24.70
2018-05-16T09:02:43.227Z,24.90
2018-05-16T09:05:10.939Z,26.53
2018-05-16T09:07:38.597Z,25.40
2018-05-16T09:10:07.100Z,25.20
2018-05-16T09:12:34.766Z,23.20
2018-05-16T09:15:02.472Z,24.27
2018-05-16T09:17:31.367Z,24.80
2018-05-16T09:19:59.059Z,22.30
2018-05-16T09:22:26.736Z,23.20
2018-05-16T09:24:54.411Z,23.07
2018-05-16T09:27:22.081Z,24.00
2018-05-16T09:29:49.760Z,22.00
2018-05-16T09:32:17.428Z,23.07
2018-05-16T09:34:45.127Z,23.93
2018-05-16T09:37:12.798Z,22.97
2018-05-16T09:39:40.501Z,23.70
2018-05-16T09:42:08.171Z,21.43
2018-05-16T09:44:35.881Z,20.80
2018-05-16T09:47:03.642Z,22.27
2018-05-16T09:49:32.654Z,18.80
2018-05-16T09:52:01.119Z,20.53
2018-05-16T09:54:28.787Z,21.43
2018-05-16T09:56:56.498Z,20.80
2018-05-16T09:59:24.178Z,21.80
2018-05-16T10:01:51.898Z,22.53
2018-05-16T10:04:19.562Z,21.83
2018-05-16T10:06:47.262Z,22.00
2018-05-16T10:09:14.926Z,21.73
2018-05-16T10:11:43.396Z,21.43
2018-05-16T10:14:11.053Z,18.03
2018-05-16T10:16:38.743Z,19.07
2018-05-16T10:19:06.598Z,19.10
2018-05-16T10:21:34.311Z,19.00
2018-05-16T10:24:02.018Z,18.77
2018-05-16T10:26:32.110Z,17.50
2018-05-16T10:29:00.587Z,17.63
2018-05-16T10:31:28.323Z,16.67
2018-05-16T10:33:56.111Z,16.70
2018-05-16T10:36:23.806Z,14.63
2018-05-16T10:38:51.465Z,14.63
2018-05-16T10:41:19.162Z,15.10
2018-05-16T10:43:46.841Z,13.43
2018-05-16T10:46:14.554Z,13.13
2018-05-16T10:48:42.229Z,12.17
2018-05-16T10:51:09.919Z,13.63
2018-05-16T10:53:37.588Z,11.87
2018-05-16T10:56:05.402Z,12.83
2018-05-16T10:58:33.850Z,12.20
2018-05-16T11:01:02.553Z,11.63
2018-05-16T11:03:31.346Z,11.20
2018-05-16T11:05:59.043Z,11.03
2018-05-16T11:08:26.730Z,11.13
2018-05-16T11:10:54.379Z,10.67
2018-05-16T11:13:22.053Z,11.07
2018-05-16T11:15:49.723Z,10.13
2018-05-16T11:18:17.414Z,11.80
2018-05-16T11:20:45.083Z,10.03
2018-05-16T11:23:12.790Z,11.50
2018-05-16T11:25:40.454Z,10.53
2018-05-16T11:28:08.232Z,10.00
2018-05-16T11:30:35.900Z,9.57
2018-05-16T11:33:03.844Z,9.90
2018-05-16T11:35:32.679Z,9.40
2018-05-16T11:38:01.922Z,11.40
2018-05-16T11:40:30.441Z,8.80
2018-05-16T11:42:58.140Z,8.73
2018-05-16T11:45:26.578Z,9.33
2018-05-16T11:47:54.263Z,8.57
2018-05-16T11:50:21.920Z,8.00
2018-05-16T11:52:49.613Z,8.10
2018-05-16T11:55:18.038Z,8.00
2018-05-16T11:57:45.728Z,8.27
2018-05-16T12:00:13.398Z,9.00
2018-05-16T12:02:41.082Z,8.50
2018-05-16T12:05:09.536Z,8.00
2018-05-16T12:07:37.233Z,8.97
2018-05-16T12:10:05.012Z,9.77
2018-05-16T12:12:32.698Z,9.23
2018-05-16T12:15:01.227Z,8.40
2018-05-16T12:17:28.859Z,9.30
2018-05-16T12:19:56.519Z,8.07
2018-05-16T12:22:24.221Z,8.17
2018-05-16T12:24:51.893Z,8.30
2018-05-16T12:27:19.558Z,7.80
2018-05-16T12:29:47.231Z,7.43
2018-05-16T12:32:14.899Z,6.63
2018-05-16T12:34:42.589Z,7.03
2018-05-16T12:37:10.251Z,7.40
2018-05-16T12:39:37.944Z,8.27
2018-05-16T12:42:06.384Z,7.63
2018-05-16T12:44:34.073Z,8.20
2018-05-16T12:47:03.489Z,8.77
2018-05-16T12:49:32.389Z,8.47
2018-05-16T12:52:00.983Z,8.53
2018-05-16T12:54:28.672Z,8.10
2018-05-16T12:56:56.330Z,8.90
2018-05-16T12:59:24.014Z,8.63
2018-05-16T13:01:51.691Z,9.00
2018-05-16T13:04:20.243Z,9.23
2018-05-16T13:06:47.912Z,9.90
2018-05-16T13:09:15.609Z,7.60
2018-05-16T13:11:44.043Z,9.37
2018-05-16T13:14:11.733Z,9.37
2018-05-16T13:16:39.397Z,8.73
2018-05-16T13:19:07.079Z,8.10
2018-05-16T13:21:35.563Z,8.27
2018-05-16T13:24:04.024Z,9.00
2018-05-16T13:26:32.459Z,8.83
2018-05-16T13:29:01.169Z,8.10
2018-05-16T13:31:28.837Z,8.90
2018-05-16T13:33:56.490Z,8.80
2018-05-16T13:36:24.188Z,8.10
2018-05-16T13:38:52.630Z,8.97
2018-05-16T13:41:20.311Z,8.97
2018-05-16T13:43:47.973Z,8.50
2018-05-16T13:46:15.663Z,9.03
2018-05-16T13:48:43.333Z,8.63
2018-05-16T13:51:11.010Z,8.73
2018-05-16T13:53:38.676Z,8.80
2018-05-16T13:56:06.353Z,7.90
2018-05-16T13:58:34.013Z,8.13
2018-05-16T14:01:02.895Z,8.70
2018-05-16T14:03:31.884Z,9.70
2018-05-16T14:06:00.683Z,8.40
2018-05-16T14:08:28.354Z,8.60
2018-05-16T14:10:56.052Z,8.30
2018-05-16T14:13:23.726Z,8.57
2018-05-16T14:15:51.397Z,8.70
2018-05-16T14:18:19.057Z,10.53
2018-05-16T14:20:46.744Z,9.67
2018-05-16T14:23:14.404Z,8.87
2018-05-16T14:25:42.085Z,9.03
2018-05-16T14:28:09.936Z,10.03
2018-05-16T14:30:37.639Z,11.37
2018-05-16T14:33:05.338Z,10.03
2018-05-16T14:35:33.029Z,10.20
2018-05-16T14:38:01.711Z,10.23
2018-05-16T14:40:29.434Z,10.00
2018-05-16T14:42:57.192Z,10.17
2018-05-16T14:45:24.828Z,10.80
2018-05-16T14:47:52.472Z,6.47
2018-05-16T14:50:20.135Z,6.70
2018-05-16T14:52:48.371Z,7.03
2018-05-16T14:55:16.888Z,5.70
2018-05-16T14:57:44.574Z,6.70
2018-05-16T15:00:13.010Z,6.90
2018-05-16T15:02:40.700Z,6.27
2018-05-16T15:05:08.348Z,5.93
2018-05-16T15:07:36.339Z,6.80
2018-05-16T15:10:04.012Z,7.37
2018-05-16T15:12:32.475Z,7.97
2018-05-16T15:15:01.154Z,7.10
2018-05-16T15:17:28.840Z,7.47
2018-05-16T15:19:57.268Z,7.63
2018-05-16T15:22:24.967Z,6.60
2018-05-16T15:24:52.641Z,6.70
2018-05-16T15:27:21.178Z,6.90
2018-05-16T15:29:49.549Z,6.63
2018-05-16T15:32:17.221Z,6.60
2018-05-16T15:34:44.884Z,6.67
2018-05-16T15:37:12.582Z,6.63
2018-05-16T15:39:41.015Z,6.73
2018-05-16T15:42:08.711Z,6.53
2018-05-16T15:44:36.380Z,6.17
2018-05-16T15:47:04.066Z,7.83
2018-05-16T15:49:32.443Z,7.50
2018-05-16T15:52:01.197Z,7.83
2018-05-16T15:54:28.872Z,7.07
2018-05-16T15:56:57.327Z,8.30
2018-05-16T15:59:24.995Z,8.20
2018-05-16T16:01:52.757Z,7.73
2018-05-16T16:04:20.415Z,7.57
2018-05-16T16:06:48.075Z,9.80
2018-05-16T16:09:16.715Z,9.07
2018-05-16T16:11:44.398Z,9.17
2018-05-16T16:14:12.108Z,7.90
2018-05-16T16:16:40.527Z,7.00
2018-05-16T16:19:08.225Z,7.10
2018-05-16T16:21:35.899Z,7.50
2018-05-16T16:24:03.706Z,7.40
2018-05-16T16:26:32.696Z,7.70
2018-05-16T16:29:00.705Z,5.77
2018-05-16T16:31:28.360Z,6.00
2018-05-16T16:33:56.054Z,5.10
2018-05-16T16:36:23.725Z,5.60
2018-05-16T16:38:52.295Z,4.83
2018-05-16T16:41:19.896Z,4.60
2018-05-16T16:43:47.625Z,5.50
2018-05-16T16:46:16.051Z,5.27
2018-05-16T16:48:43.733Z,5.50
2018-05-16T16:51:11.484Z,5.53
2018-05-16T16:53:39.186Z,4.70
2018-05-16T16:56:06.858Z,5.67
2018-05-16T16:58:35.329Z,6.07
2018-05-16T17:01:03.074Z,5.13
2018-05-16T17:03:31.669Z,5.43
2018-05-16T17:05:59.340Z,4.73
2018-05-16T17:08:27.819Z,5.07
2018-05-16T17:10:55.477Z,5.73
2018-05-16T17:13:23.157Z,6.27
2018-05-16T17:15:51.603Z,6.50
2018-05-16T17:18:20.271Z,6.40
2018-05-16T17:20:47.936Z,6.10
2018-05-16T17:23:15.642Z,5.93
2018-05-16T17:25:44.057Z,5.87
2018-05-16T17:28:11.991Z,6.40
2018-05-16T17:30:40.460Z,5.97
2018-05-16T17:33:08.976Z,6.83
2018-05-16T17:35:36.587Z,6.60
2018-05-16T17:38:04.247Z,6.50
2018-05-16T17:40:33.007Z,6.53
2018-05-16T17:43:01.602Z,5.67
2018-05-16T17:45:29.343Z,7.00
2018-05-16T17:47:57.010Z,7.60
2018-05-16T17:50:24.707Z,6.50
2018-05-16T17:52:52.379Z,6.50
2018-05-16T17:55:20.053Z,6.97
2018-05-16T17:57:48.472Z,7.83
2018-05-16T18:00:16.178Z,6.70
2018-05-16T18:02:43.851Z,7.97
2018-05-16T18:05:12.327Z,7.40
2018-05-16T18:07:40.814Z,7.20
2018-05-16T18:10:09.265Z,7.43
2018-05-16T18:12:36.943Z,7.93
2018-05-16T18:15:19.276Z,6.60
2018-05-16T18:17:46.924Z,8.00
2018-05-16T18:20:15.385Z,7.77
2018-05-16T18:22:43.050Z,7.50
2018-05-16T18:25:10.741Z,6.97
2018-05-16T18:27:38.403Z,7.40
2018-05-16T18:30:06.089Z,7.73
2018-05-16T18:32:33.823Z,7.40
2018-05-16T18:35:02.354Z,8.00
2018-05-16T18:37:30.023Z,8.37
2018-05-16T18:39:57.701Z,8.57
2018-05-16T18:42:25.460Z,8.80
2018-05-16T18:44:53.079Z,8.37
2018-05-16T18:47:20.769Z,11.40
2018-05-16T18:49:48.446Z,11.67
2018-05-16T18:52:16.137Z,11.60
2018-05-16T18:54:43.812Z,13.60
2018-05-16T18:57:11.505Z,12.13
2018-05-16T18:59:39.179Z,13.00
2018-05-16T19:02:06.870Z,13.17
2018-05-16T19:04:35.319Z,12.40
2018-05-16T19:07:03.024Z,12.80
2018-05-16T19:09:31.747Z,13.80
2018-05-16T19:11:59.432Z,13.90
2018-05-16T19:14:27.155Z,12.80
2018-05-16T19:16:54.848Z,13.33
2018-05-16T19:19:22.511Z,14.00
2018-05-16T19:21:50.201Z,14.57
2018-05-16T19:24:17.877Z,13.43
2018-05-16T19:26:46.356Z,15.00
2018-05-16T19:29:14.791Z,13.87
2018-05-16T19:31:42.496Z,15.07
2018-05-16T19:34:10.940Z,12.27
2018-05-16T19:36:38.643Z,13.37
2018-05-16T19:39:07.080Z,12.67
2018-05-16T19:41:34.770Z,13.23
2018-05-16T19:44:03.225Z,14.60
2018-05-16T19:46:30.904Z,12.77
2018-05-16T19:48:58.568Z,12.13
2018-05-16T19:51:26.269Z,13.00
2018-05-16T19:53:53.951Z,13.40
2018-05-16T19:56:21.655Z,12.00
2018-05-16T19:58:49.327Z,14.00
2018-05-16T20:01:17.763Z,13.53
2018-05-16T20:03:45.448Z,13.73
2018-05-16T20:06:13.119Z,14.00
2018-05-16T20:08:40.821Z,13.00
2018-05-16T20:11:08.498Z,13.00
2018-05-16T20:13:36.210Z,12.67
2018-05-16T20:16:04.787Z,11.97
2018-05-16T20:18:32.549Z,15.40
2018-05-16T20:21:01.442Z,14.00
2018-05-16T20:23:29.140Z,15.67
2018-05-16T20:25:56.816Z,16.90
2018-05-16T20:28:24.522Z,15.80
2018-05-16T20:30:52.195Z,15.73
2018-05-16T20:33:20.681Z,17.00
2018-05-16T20:35:49.135Z,16.33
2018-05-16T20:38:16.831Z,17.97
2018-05-16T20:40:45.273Z,16.53
2018-05-16T20:43:12.972Z,17.03
2018-05-16T20:45:41.417Z,15.70
2018-05-16T20:48:09.115Z,19.10
2018-05-16T20:50:37.558Z,16.43
2018-05-16T20:53:06.138Z,18.57
2018-05-16T20:55:33.823Z,18.50
2018-05-16T20:58:02.758Z,17.43
2018-05-16T21:00:32.013Z,16.80
2018-05-16T21:03:00.255Z,16.53
2018-05-16T21:05:27.928Z,16.10
2018-05-16T21:07:55.711Z,16.77
2018-05-16T21:10:23.384Z,17.47
2018-05-16T21:12:51.859Z,17.63
2018-05-16T21:15:20.301Z,17.50
2018-05-16T21:17:47.995Z,17.90
2018-05-16T21:20:15.692Z,17.80
2018-05-16T21:22:43.370Z,17.70
2018-05-16T21:25:11.070Z,19.57
2018-05-16T21:27:38.738Z,18.93
2018-05-16T21:30:06.434Z,18.37
2018-05-16T21:32:34.081Z,17.40
2018-05-16T21:35:02.744Z,17.97
2018-05-16T21:37:31.794Z,19.23
2018-05-16T21:39:59.519Z,18.97
2018-05-16T21:42:28.887Z,18.10
2018-05-16T21:44:56.565Z,18.10
2018-05-16T21:47:24.217Z,19.37
2018-05-16T21:49:51.922Z,19.57
2018-05-16T21:52:19.586Z,19.00
2018-05-16T21:54:47.287Z,18.80
2018-05-16T21:57:14.953Z,19.37
2018-05-16T21:59:42.632Z,20.20
2018-05-16T22:02:10.308Z,20.10
2018-05-16T22:04:38.774Z,19.37
2018-05-16T22:07:06.495Z,21.53
2018-05-16T22:09:34.193Z,18.93
2018-05-16T22:12:01.957Z,21.07
2018-05-16T22:14:30.420Z,21.83
2018-05-16T22:16:58.102Z,22.23
2018-05-16T22:19:25.815Z,23.70
2018-05-16T22:21:53.489Z,21.30
2018-05-16T22:24:21.172Z,23.13
2018-05-16T22:26:48.855Z,21.13
2018-05-16T22:29:16.542Z,19.67
2018-05-16T22:31:49.909Z,21.73
2018-05-16T22:34:23.203Z,19.73
2018-05-16T22:36:56.461Z,23.37
2018-05-16T22:39:30.246Z,19.50
2018-05-16T22:42:03.650Z,22.27
2018-05-16T22:47:35.451Z,20.57
2018-05-16T22:50:03.271Z,22.27
2018-05-16T22:52:30.935Z,20.00
2018-05-16T22:54:58.627Z,21.80
2018-05-16T22:57:26.292Z,23.37
2018-05-16T22:59:54.009Z,23.63
2018-05-16T23:02:22.448Z,21.10
2018-05-16T23:04:50.119Z,21.37
2018-05-16T23:07:17.809Z,21.37
2018-05-16T23:09:46.250Z,20.40
2018-05-16T23:12:13.975Z,22.67
2018-05-16T23:14:41.654Z,21.50
2018-05-16T23:17:09.355Z,20.97
2018-05-16T23:19:37.030Z,20.00
2018-05-16T23:22:05.502Z,21.40
2018-05-16T23:24:33.181Z,22.30
2018-05-16T23:27:01.949Z,20.57
2018-05-16T23:29:30.302Z,22.77
2018-05-16T23:31:58.000Z,25.43
2018-05-16T23:34:26.446Z,22.20
2018-05-16T23:36:54.148Z,23.33
2018-05-16T23:39:22.591Z,18.93
2018-05-16T23:41:50.292Z,22.60
2018-05-16T23:44:18.731Z,20.83
2018-05-16T23:46:46.421Z,20.33
2018-05-16T23:49:14.845Z,21.83
2018-05-16T23:51:42.545Z,19.07
2018-05-16T23:54:10.228Z,21.63
2018-05-16T23:56:38.718Z,23.57
2018-05-16T23:59:07.156Z,21.50
